Time;durP1;ratioP1;P1;durP2;ratioP2;P2;SDS_P1;SDS_P2;PMS_P1;PMS_P2;Temp;Humidity;BMP_temperature;BMP_pressure;BME280_temperature;BME280_humidity;BME280_pressure;Samples;Min_cycle;Max_cycle;Signal;HPM_P1;HPM_P2
2022/03/23 00:00:32;;;;;;;59.70;26.70;;;;;;;0.57;66.17;102263.82;88227;1273;88826;-68
2022/03/23 00:02:50;;;;;;;65.70;27.40;;;;;;;0.57;66.08;102262.60;88186;1273;95903;-69
2022/03/23 00:05:18;;;;;;;73.70;29.40;;;;;;;0.57;66.04;102268.05;88175;1274;81387;-69
2022/03/23 00:07:31;;;;;;;71.90;28.00;;;;;;;0.57;66.35;102264.49;88212;1273;82129;-70
2022/03/23 00:09:44;;;;;;;75.90;31.40;;;;;;;0.59;66.25;102265.15;88226;1273;100198;-67
2022/03/23 00:11:56;;;;;;;63.70;28.70;;;;;;;0.59;66.38;102264.77;88205;1273;87638;-67
2022/03/23 00:14:09;;;;;;;63.70;28.90;;;;;;;0.60;66.50;102259.59;88224;1273;92417;-67
2022/03/23 00:16:18;;;;;;;54.10;26.50;;;;;;;0.59;66.48;102258.58;88229;1273;78902;-68
2022/03/23 00:18:27;;;;;;;48.50;23.70;;;;;;;0.56;66.36;102259.82;88219;1273;82051;-68
2022/03/23 00:20:39;;;;;;;52.10;25.60;;;;;;;0.55;66.50;102258.45;88239;1273;100252;-68
2022/03/23 00:22:52;;;;;;;50.00;25.20;;;;;;;0.53;66.70;102256.05;88172;1274;87275;-68
2022/03/23 00:25:04;;;;;;;42.40;23.30;;;;;;;0.49;66.72;102256.27;88198;1273;93468;-68
2022/03/23 00:27:17;;;;;;;46.30;24.70;;;;;;;0.46;66.70;102259.26;88223;1273;78679;-69
2022/03/23 00:29:29;;;;;;;43.40;22.40;;;;;;;0.43;66.80;102255.91;88187;1275;80517;-66
2022/03/23 00:31:41;;;;;;;36.70;22.80;;;;;;;0.37;66.66;102254.92;88161;1274;97182;-68
2022/03/23 00:33:50;;;;;;;42.50;22.30;;;;;;;0.35;66.76;102256.27;88208;1273;88994;-68
2022/03/23 00:36:09;;;;;;;42.70;22.90;;;;;;;0.31;66.85;102253.81;88184;1273;94616;-68
2022/03/23 00:38:21;;;;;;;48.80;22.90;;;;;;;0.28;66.96;102253.44;88214;1273;80606;-68
2022/03/23 00:40:31;;;;;;;52.80;25.80;;;;;;;0.28;67.05;102248.89;88227;1273;81298;-68
2022/03/23 00:42:44;;;;;;;58.30;25.00;;;;;;;0.27;67.00;102247.84;88228;1273;97337;-68
2022/03/23 00:44:54;;;;;;;65.50;27.60;;;;;;;0.27;67.03;102247.16;88211;1273;86996;-68
2022/03/23 00:47:04;;;;;;;67.60;28.90;;;;;;;0.26;67.26;102244.75;88105;1276;96956;-68
2022/03/23 00:49:16;;;;;;;67.70;29.30;;;;;;;0.23;67.46;102245.39;88226;1273;79324;-68
2022/03/23 00:51:28;;;;;;;60.20;25.60;;;;;;;0.22;67.34;102242.96;88220;1273;79934;-68
2022/03/23 00:53:40;;;;;;;55.10;25.50;;;;;;;0.22;67.54;102239.77;88209;1273;100918;-68
2022/03/23 00:55:49;;;;;;;46.90;24.00;;;;;;;0.22;67.52;102238.70;88217;1273;87875;-69
2022/03/23 00:57:58;;;;;;;42.30;22.70;;;;;;;0.22;67.51;102238.73;88237;1273;93556;-67
2022/03/23 01:00:12;;;;;;;41.30;22.90;;;;;;;0.22;67.81;102234.14;88221;1273;79697;-68
2022/03/23 01:02:24;;;;;;;42.60;22.80;;;;;;;0.22;67.86;102231.84;88188;1273;80768;-68
2022/03/23 01:04:33;;;;;;;38.70;23.30;;;;;;;0.20;67.86;102234.61;88245;1273;97444;-68
2022/03/23 01:06:42;;;;;;;40.30;22.20;;;;;;;0.17;67.68;102229.08;88230;1273;88589;-69
2022/03/23 01:08:51;;;;;;;37.10;21.10;;;;;;;0.14;67.90;102229.20;88204;1272;95758;-69
2022/03/23 01:11:06;;;;;;;34.50;22.20;;;;;;;0.11;67.99;102227.45;88218;1273;78445;-67
2022/03/23 01:13:16;;;;;;;44.40;21.20;;;;;;;0.07;67.94;102228.35;88222;1273;81491;-68
2022/03/23 01:15:25;;;;;;;40.40;22.60;;;;;;;0.03;67.91;102225.74;88150;1276;98997;-66
2022/03/23 01:17:37;;;;;;;42.70;22.60;;;;;;;-0.03;67.77;102227.60;88253;1273;86697;-69
2022/03/23 01:19:46;;;;;;;39.00;21.60;;;;;;;-0.07;67.98;102226.36;88216;1273;93396;-69
2022/03/23 01:21:56;;;;;;;38.00;21.10;;;;;;;-0.10;68.03;102225.85;88213;1273;80736;-67
2022/03/23 01:24:06;;;;;;;33.10;20.40;;;;;;;-0.15;68.02;102220.61;88223;1273;82682;-67
2022/03/23 01:26:15;;;;;;;36.50;20.60;;;;;;;-0.20;68.24;102227.58;88210;1273;99497;-68
2022/03/23 01:28:27;;;;;;;36.30;20.30;;;;;;;-0.21;68.44;102225.14;88225;1273;88599;-68
2022/03/23 01:30:39;;;;;;;33.40;20.80;;;;;;;-0.22;68.49;102222.55;88219;1273;94555;-68
2022/03/23 01:32:49;;;;;;;35.80;21.00;;;;;;;-0.24;68.50;102229.37;88217;1273;79202;-68
2022/03/23 01:34:58;;;;;;;34.30;20.80;;;;;;;-0.23;68.71;102222.98;88241;1273;83704;-68
2022/03/23 01:37:07;;;;;;;35.30;20.70;;;;;;;-0.24;68.82;102221.43;88200;1273;97982;-67
2022/03/23 01:39:16;;;;;;;41.80;21.80;;;;;;;-0.23;68.92;102219.77;88259;1273;87728;-68
2022/03/23 01:41:26;;;;;;;36.10;20.20;;;;;;;-0.21;69.01;102223.74;88212;1273;94451;-67
2022/03/23 01:43:35;;;;;;;35.40;21.10;;;;;;;-0.21;69.19;102223.20;88200;1273;82034;-67
2022/03/23 01:45:47;;;;;;;36.10;19.90;;;;;;;-0.21;69.04;102220.36;88274;1273;80609;-67
2022/03/23 01:47:56;;;;;;;42.70;21.20;;;;;;;-0.21;69.18;102214.35;88241;1273;99454;-68
2022/03/23 01:50:08;;;;;;;44.30;23.40;;;;;;;-0.22;69.34;102217.05;88198;1273;88348;-67
2022/03/23 01:52:20;;;;;;;45.60;22.70;;;;;;;-0.24;69.24;102213.44;88204;1273;95148;-69
2022/03/23 01:54:29;;;;;;;46.20;23.70;;;;;;;-0.23;69.10;102214.10;88248;1273;78090;-68
2022/03/23 01:56:38;;;;;;;55.00;26.60;;;;;;;-0.24;69.19;102212.73;88241;1273;82155;-67
2022/03/23 01:58:47;;;;;;;49.70;24.50;;;;;;;-0.25;69.34;102208.17;88233;1273;97984;-68
2022/03/23 02:01:00;;;;;;;47.30;25.00;;;;;;;-0.25;69.21;102206.40;88224;1273;89057;-67
2022/03/23 02:03:11;;;;;;;46.20;24.30;;;;;;;-0.29;68.93;102208.91;88232;1273;95214;-69
2022/03/23 02:05:21;;;;;;;51.90;25.60;;;;;;;-0.36;69.26;102209.30;88215;1273;76596;-67
2022/03/23 02:07:33;;;;;;;48.50;26.40;;;;;;;-0.40;69.43;102210.34;88191;1274;80315;-67
2022/03/23 02:09:46;;;;;;;49.60;25.20;;;;;;;-0.41;69.25;102207.55;88238;1273;99153;-68
2022/03/23 02:11:56;;;;;;;42.80;23.10;;;;;;;-0.43;69.44;102205.73;88196;1273;88752;-68
2022/03/23 02:14:06;;;;;;;46.20;23.60;;;;;;;-0.49;69.64;102203.35;88232;1273;95640;-68
2022/03/23 02:16:15;;;;;;;49.00;24.00;;;;;;;-0.55;69.39;102197.83;88237;1273;79931;-68
2022/03/23 02:18:23;;;;;;;41.20;22.20;;;;;;;-0.58;69.63;102202.04;88154;1274;80074;-68
2022/03/23 02:20:33;;;;;;;41.60;22.60;;;;;;;-0.60;70.00;102201.25;88193;1274;99058;-67
2022/03/23 02:22:45;;;;;;;40.30;21.40;;;;;;;-0.62;69.88;102203.13;88220;1273;89535;-68
2022/03/23 02:24:54;;;;;;;36.10;21.80;;;;;;;-0.62;70.06;102202.40;88177;1273;93077;-70
2022/03/23 02:27:04;;;;;;;39.90;21.90;;;;;;;-0.64;70.23;102199.13;88206;1273;79926;-68
2022/03/23 02:29:17;;;;;;;37.80;20.90;;;;;;;-0.66;70.51;102198.34;88234;1273;81479;-68
2022/03/23 02:31:26;;;;;;;42.50;21.30;;;;;;;-0.67;70.61;102198.41;88200;1273;100315;-68
2022/03/23 02:33:35;;;;;;;37.20;21.30;;;;;;;-0.66;70.39;102200.84;88239;1273;88795;-68
2022/03/23 02:35:44;;;;;;;39.50;21.50;;;;;;;-0.64;70.62;102203.56;88213;1272;94576;-68
2022/03/23 02:37:56;;;;;;;37.70;21.20;;;;;;;-0.65;70.53;102205.02;88186;1275;79020;-68
2022/03/23 02:40:05;;;;;;;34.40;20.50;;;;;;;-0.66;70.33;102207.34;88233;1273;83126;-67
2022/03/23 02:42:14;;;;;;;40.80;21.90;;;;;;;-0.67;70.30;102196.09;88249;1273;98132;-68
2022/03/23 02:44:27;;;;;;;38.90;21.40;;;;;;;-0.71;70.64;102200.88;88219;1274;87531;-68
2022/03/23 02:46:36;;;;;;;42.30;22.90;;;;;;;-0.74;70.73;102197.33;88221;1273;93884;-68
2022/03/23 02:48:45;;;;;;;42.00;24.40;;;;;;;-0.76;70.51;102199.73;88219;1273;77519;-68
2022/03/23 02:50:54;;;;;;;38.10;23.60;;;;;;;-0.80;70.70;102196.89;88263;1273;80236;-68
2022/03/23 03:03:48;;;;;;;56.60;32.10;;;;;;;-0.82;71.49;102175.98;88169;1273;81687;-67
2022/03/23 03:05:56;;;;;;;56.00;32.20;;;;;;;-0.66;72.06;102170.58;88193;1273;99829;-68
2022/03/23 03:10:33;;;;;;;56.10;32.30;;;;;;;-0.44;71.68;102165.79;88228;1273;94148;-67
2022/03/23 03:12:46;;;;;;;53.90;30.90;;;;;;;-0.41;71.71;102163.14;88018;1273;235707;-68
2022/03/23 03:14:58;;;;;;;48.70;29.40;;;;;;;-0.41;71.51;102160.18;88225;1273;81190;-69
2022/03/23 03:17:10;;;;;;;52.50;30.90;;;;;;;-0.41;71.48;102153.98;88209;1273;99006;-68
2022/03/23 03:19:20;;;;;;;59.10;31.90;;;;;;;-0.33;71.74;102149.98;88229;1273;88551;-68
2022/03/23 03:21:32;;;;;;;49.60;30.80;;;;;;;-0.29;71.56;102151.02;88234;1273;96013;-69
2022/03/23 03:23:44;;;;;;;50.00;29.40;;;;;;;-0.29;71.58;102153.34;88229;1273;79376;-69
2022/03/23 03:25:53;;;;;;;51.70;30.20;;;;;;;-0.29;71.30;102147.84;88266;1273;81981;-69
2022/03/23 03:28:06;;;;;;;54.50;29.40;;;;;;;-0.29;71.49;102151.40;88249;1273;98713;-70
2022/03/23 03:30:18;;;;;;;46.00;29.00;;;;;;;-0.29;71.32;102147.16;88262;1273;89259;-68
2022/03/23 03:32:28;;;;;;;50.40;30.60;;;;;;;-0.34;71.16;102148.13;88226;1273;94588;-70
2022/03/23 03:34:38;;;;;;;51.20;31.00;;;;;;;-0.37;71.22;102145.06;88220;1273;78298;-68
2022/03/23 03:36:48;;;;;;;49.60;30.10;;;;;;;-0.39;70.98;102141.64;88221;1273;82467;-70
2022/03/23 03:39:00;;;;;;;51.90;31.60;;;;;;;-0.41;71.14;102144.06;88167;1276;99355;-71
2022/03/23 03:41:10;;;;;;;49.80;30.10;;;;;;;-0.46;71.19;102143.74;88159;1276;88954;-70
2022/03/23 03:43:19;;;;;;;49.50;29.90;;;;;;;-0.52;71.15;102145.30;88228;1273;93679;-68
2022/03/23 03:45:28;;;;;;;53.70;31.00;;;;;;;-0.58;71.16;102143.85;88241;1273;77894;-68
2022/03/23 03:47:41;;;;;;;52.00;30.50;;;;;;;-0.65;71.06;102143.84;88218;1273;82694;-67
2022/03/23 03:49:50;;;;;;;54.20;30.00;;;;;;;-0.70;71.25;102145.67;88201;1273;97431;-66
2022/03/23 03:52:03;;;;;;;50.30;30.50;;;;;;;-0.78;71.55;102145.68;88195;1274;88718;-73
2022/03/23 03:54:12;;;;;;;47.70;28.80;;;;;;;-0.83;71.49;102145.02;88249;1273;94247;-67
2022/03/23 03:56:21;;;;;;;52.10;30.20;;;;;;;-0.84;71.66;102141.39;88214;1273;78267;-69
2022/03/23 03:58:31;;;;;;;55.10;30.90;;;;;;;-0.84;71.30;102145.11;88247;1273;82320;-68
2022/03/23 04:00:41;;;;;;;48.30;29.80;;;;;;;-0.84;71.55;102146.16;88230;1273;100046;-69
2022/03/23 04:02:50;;;;;;;46.40;28.00;;;;;;;-0.84;71.70;102147.77;88236;1273;89310;-68
2022/03/23 04:05:02;;;;;;;46.40;29.10;;;;;;;-0.85;71.57;102149.27;88130;1276;97112;-68
2022/03/23 04:07:12;;;;;;;45.10;27.90;;;;;;;-0.85;71.82;102150.80;88214;1273;79597;-68
2022/03/23 04:09:22;;;;;;;44.10;29.40;;;;;;;-0.86;71.72;102146.28;88262;1273;80640;-67
2022/03/23 04:11:31;;;;;;;44.70;28.10;;;;;;;-0.83;72.02;102150.73;88211;1273;98474;-66
2022/03/23 04:13:40;;;;;;;45.50;28.00;;;;;;;-0.81;71.89;102150.06;88227;1273;88798;-68
2022/03/23 04:15:50;;;;;;;50.10;29.40;;;;;;;-0.79;71.50;102153.20;88186;1273;95089;-66
2022/03/23 04:17:59;;;;;;;45.50;27.40;;;;;;;-0.79;71.72;102154.40;88158;1274;78234;-67
2022/03/23 04:20:12;;;;;;;46.20;29.20;;;;;;;-0.78;71.55;102151.90;88203;1275;80766;-66
2022/03/23 04:22:21;;;;;;;51.60;30.20;;;;;;;-0.79;71.98;102151.25;88155;1276;97906;-67
2022/03/23 04:24:33;;;;;;;47.40;30.00;;;;;;;-0.82;71.88;102146.81;88211;1274;89665;-71
2022/03/23 04:26:44;;;;;;;55.20;31.30;;;;;;;-0.84;71.63;102146.70;88188;1274;93919;-69
2022/03/23 04:28:54;;;;;;;50.10;29.20;;;;;;;-0.88;71.87;102145.86;88196;1275;76779;-69
2022/03/23 04:31:07;;;;;;;50.20;29.30;;;;;;;-0.93;71.50;102143.97;88197;1274;82201;-69
2022/03/23 04:33:17;;;;;;;49.90;29.40;;;;;;;-0.98;71.78;102146.84;88192;1276;98822;-69
2022/03/23 04:35:26;;;;;;;51.20;29.50;;;;;;;-1.01;72.07;102143.11;88168;1275;87083;-70
2022/03/23 04:37:35;;;;;;;44.40;28.30;;;;;;;-1.04;71.90;102140.40;88192;1274;95582;-69
2022/03/23 04:39:44;;;;;;;48.90;28.90;;;;;;;-1.04;71.83;102138.85;88175;1274;81310;-68
2022/03/23 04:41:53;;;;;;;49.90;29.40;;;;;;;-1.04;72.27;102134.44;88180;1274;83222;-68
2022/03/23 04:44:02;;;;;;;45.40;27.50;;;;;;;-1.02;72.19;102138.76;88166;1276;100452;-68
2022/03/23 04:46:14;;;;;;;45.20;28.60;;;;;;;-0.96;72.09;102136.17;88168;1276;87452;-69
2022/03/23 04:48:23;;;;;;;46.40;27.10;;;;;;;-0.91;72.00;102135.03;88193;1274;95225;-68
2022/03/23 04:50:33;;;;;;;47.90;27.30;;;;;;;-0.87;72.27;102137.45;88158;1276;80460;-68
2022/03/23 04:52:44;;;;;;;43.30;26.00;;;;;;;-0.83;72.24;102136.41;88189;1274;81681;-69
2022/03/23 04:54:56;;;;;;;41.50;27.20;;;;;;;-0.81;72.51;102137.52;88211;1274;97042;-67
2022/03/23 04:57:06;;;;;;;42.90;28.20;;;;;;;-0.76;72.27;102135.35;88213;1274;88159;-67
2022/03/23 04:59:15;;;;;;;42.70;26.80;;;;;;;-0.69;72.26;102130.92;88087;1276;94466;-67
2022/03/23 05:01:24;;;;;;;43.10;27.10;;;;;;;-0.66;72.10;102127.40;88176;1274;77011;-66
2022/03/23 05:03:34;;;;;;;44.10;27.80;;;;;;;-0.61;72.32;102123.24;88184;1274;81370;-67
2022/03/23 05:05:44;;;;;;;43.00;27.90;;;;;;;-0.54;72.04;102126.65;88171;1276;100046;-66
2022/03/23 05:07:53;;;;;;;44.80;28.50;;;;;;;-0.49;72.26;102123.56;88199;1274;88929;-67
2022/03/23 05:10:03;;;;;;;42.00;27.20;;;;;;;-0.47;72.30;102121.16;88202;1274;93541;-68
2022/03/23 05:12:13;;;;;;;42.10;28.40;;;;;;;-0.44;72.26;102124.02;88202;1274;79317;-67
2022/03/23 05:14:22;;;;;;;46.10;28.20;;;;;;;-0.37;72.40;102122.58;88229;1274;80010;-67
2022/03/23 05:16:32;;;;;;;46.20;28.00;;;;;;;-0.00;72.30;102120.66;88193;1274;100278;-68
2022/03/23 05:18:43;;;;;;;45.90;27.90;;;;;;;1.33;72.62;102117.67;88114;1276;89024;-68
2022/03/23 05:20:52;;;;;;;39.30;26.60;;;;;;;2.81;71.65;102113.55;88202;1275;95241;-67
2022/03/23 05:23:03;;;;;;;45.90;28.40;;;;;;;3.85;70.41;102108.09;88195;1274;77503;-68
2022/03/23 05:25:14;;;;;;;41.00;27.60;;;;;;;4.08;69.19;102111.13;88202;1274;82958;-68
2022/03/23 05:27:23;;;;;;;39.70;27.80;;;;;;;3.87;68.26;102107.02;88195;1275;100079;-65
2022/03/23 05:29:32;;;;;;;40.40;27.10;;;;;;;3.45;68.09;102108.81;88170;1275;86272;-66
2022/03/23 05:31:41;;;;;;;37.80;27.30;;;;;;;3.10;68.04;102111.54;88193;1274;95827;-67
2022/03/23 05:33:50;;;;;;;43.10;28.40;;;;;;;2.78;68.24;102111.46;88171;1274;77332;-68
2022/03/23 05:36:00;;;;;;;42.80;29.30;;;;;;;2.60;68.30;102111.40;88202;1274;82110;-66
2022/03/23 05:38:09;;;;;;;41.00;28.90;;;;;;;2.46;68.38;102111.42;88187;1275;99815;-66
2022/03/23 05:40:19;;;;;;;43.50;29.40;;;;;;;2.34;68.44;102110.02;88232;1274;88805;-66
2022/03/23 05:42:28;;;;;;;43.30;29.60;;;;;;;2.34;68.43;102103.61;88196;1275;94018;-66
2022/03/23 05:44:41;;;;;;;47.90;29.60;;;;;;;2.35;68.45;102106.55;88168;1274;79699;-66
2022/03/23 05:46:51;;;;;;;45.90;29.90;;;;;;;2.35;68.52;102107.24;88155;1276;82947;-66
2022/03/23 05:49:01;;;;;;;48.10;30.30;;;;;;;2.41;68.49;102106.20;88186;1276;98281;-66
2022/03/23 05:51:10;;;;;;;50.90;32.30;;;;;;;2.56;68.86;102105.75;88192;1274;89232;-66
2022/03/23 05:53:20;;;;;;;45.50;30.70;;;;;;;3.43;69.49;102100.38;88188;1274;95212;-66
2022/03/23 05:55:29;;;;;;;47.60;31.60;;;;;;;5.32;69.22;102093.30;88183;1274;79241;-67
2022/03/23 05:57:39;;;;;;;46.10;30.90;;;;;;;7.28;67.98;102092.21;88193;1274;82908;-67
2022/03/23 05:59:48;;;;;;;43.00;30.30;;;;;;;8.94;66.57;102085.34;88167;1274;99607;-67
2022/03/23 06:01:58;;;;;;;42.20;31.50;;;;;;;10.29;65.39;102086.17;88190;1274;88738;-67
2022/03/23 06:04:08;;;;;;;40.70;31.10;;;;;;;11.52;63.65;102080.86;88186;1274;94162;-66
2022/03/23 06:06:18;;;;;;;43.90;31.00;;;;;;;12.52;61.48;102074.10;88190;1275;79875;-68
2022/03/23 06:08:27;;;;;;;44.80;32.00;;;;;;;13.34;59.71;102075.71;88210;1275;80504;-67
2022/03/23 06:10:38;;;;;;;39.10;30.60;;;;;;;14.21;58.49;102072.50;88192;1275;99219;-67
2022/03/23 06:12:47;;;;;;;42.60;30.80;;;;;;;14.87;57.19;102075.61;88212;1275;89518;-66
2022/03/23 06:14:57;;;;;;;38.10;30.30;;;;;;;15.45;55.72;102071.67;88188;1274;94819;-66
2022/03/23 06:17:07;;;;;;;41.40;32.10;;;;;;;16.15;53.91;102068.30;88110;1276;77414;-71
2022/03/23 06:19:17;;;;;;;41.30;31.20;;;;;;;16.76;52.41;102070.20;88200;1274;81069;-64
2022/03/23 06:21:27;;;;;;;39.60;32.60;;;;;;;17.03;50.56;102066.36;88220;1274;98130;-62
2022/03/23 06:23:36;;;;;;;38.30;29.80;;;;;;;17.38;49.29;102064.55;88199;1274;87195;-62
2022/03/23 06:25:48;;;;;;;38.50;31.10;;;;;;;17.77;48.54;102065.19;88188;1275;94893;-62
2022/03/23 06:27:57;;;;;;;40.10;32.10;;;;;;;18.25;47.79;102064.94;88211;1274;81224;-63
2022/03/23 06:30:08;;;;;;;39.70;31.80;;;;;;;18.40;46.45;102062.89;88226;1276;83091;-62
2022/03/23 06:32:17;;;;;;;39.80;30.70;;;;;;;18.20;45.67;102060.73;88203;1275;98336;-65
2022/03/23 06:34:26;;;;;;;36.60;29.80;;;;;;;18.73;44.97;102064.20;88185;1277;88365;-64
2022/03/23 06:36:36;;;;;;;33.80;29.60;;;;;;;19.13;44.17;102064.38;88177;1274;92485;-64
2022/03/23 06:38:46;;;;;;;34.70;29.60;;;;;;;18.98;43.13;102064.43;88195;1274;79027;-65
2022/03/23 06:40:55;;;;;;;37.90;29.70;;;;;;;18.01;42.86;102062.55;88244;1274;82527;-64
2022/03/23 06:43:05;;;;;;;34.50;28.10;;;;;;;17.96;42.84;102059.98;88193;1274;100700;-63
2022/03/23 06:45:14;;;;;;;34.90;29.60;;;;;;;18.12;42.60;102061.00;88200;1274;88085;-62
2022/03/23 06:47:24;;;;;;;35.10;27.40;;;;;;;19.20;42.42;102059.76;88195;1274;95267;-64
2022/03/23 06:49:34;;;;;;;28.40;24.40;;;;;;;20.33;41.29;102056.94;88171;1274;78055;-65
2022/03/23 06:51:43;;;;;;;29.70;25.20;;;;;;;21.28;40.00;102056.27;88190;1274;81283;-65
2022/03/23 06:53:58;;;;;;;27.10;22.50;;;;;;;22.26;39.06;102051.41;88189;1274;100454;-66
2022/03/23 06:56:08;;;;;;;27.70;22.50;;;;;;;23.11;37.15;102051.42;88187;1274;88830;-69
2022/03/23 06:58:18;;;;;;;25.20;21.20;;;;;;;23.83;35.78;102053.21;88167;1276;94184;-66
2022/03/23 07:00:27;;;;;;;25.50;22.10;;;;;;;23.70;34.55;102056.26;88136;1277;81808;-66
2022/03/23 07:02:36;;;;;;;27.10;21.70;;;;;;;23.47;34.50;102056.48;88110;1277;81977;-66
2022/03/23 07:04:46;;;;;;;24.40;21.30;;;;;;;23.82;34.15;102053.20;88211;1274;99362;-66
2022/03/23 07:06:58;;;;;;;25.20;20.00;;;;;;;24.24;33.11;102048.94;88165;1274;88186;-66
2022/03/23 07:11:34;;;;;;;51.00;45.70;;;;;;;25.10;31.54;102047.41;88149;1276;77186;-64
2022/03/23 07:13:43;;;;;;;25.50;22.10;;;;;;;25.74;30.80;102044.18;88196;1275;82382;-63
2022/03/23 07:15:52;;;;;;;25.70;22.80;;;;;;;26.15;29.87;102044.27;88174;1274;98134;-64
2022/03/23 07:18:02;;;;;;;25.80;22.00;;;;;;;26.48;28.68;102043.22;88164;1276;88318;-64
2022/03/23 07:20:12;;;;;;;29.60;23.50;;;;;;;26.96;28.90;102046.80;88138;1277;94168;-65
2022/03/23 07:22:22;;;;;;;29.40;23.50;;;;;;;27.16;28.36;102051.05;88189;1274;77840;-64
2022/03/23 07:24:31;;;;;;;27.00;22.90;;;;;;;27.50;27.53;102051.11;88162;1274;81599;-65
2022/03/23 07:26:40;;;;;;;29.50;24.70;;;;;;;27.87;27.54;102046.11;88183;1274;98755;-64
2022/03/23 07:28:50;;;;;;;26.80;24.00;;;;;;;28.24;26.83;102044.04;88160;1277;88112;-65
2022/03/23 07:31:01;;;;;;;25.90;22.60;;;;;;;28.33;26.63;102037.39;88113;1277;92531;-65
2022/03/23 07:33:11;;;;;;;26.10;23.40;;;;;;;28.67;25.99;102031.39;88179;1274;79259;-65
2022/03/23 07:35:20;;;;;;;30.40;25.80;;;;;;;29.08;25.13;102033.08;88229;1274;82696;-66
2022/03/23 07:37:31;;;;;;;33.20;27.00;;;;;;;29.12;24.40;102030.98;88215;1274;100695;-66
2022/03/23 07:39:40;;;;;;;28.60;25.60;;;;;;;29.45;24.15;102026.96;88175;1274;88545;-67
2022/03/23 07:41:52;;;;;;;28.20;25.10;;;;;;;29.62;24.06;102026.28;88197;1274;95912;-66
2022/03/23 07:44:01;;;;;;;34.50;25.80;;;;;;;29.45;23.68;102023.36;88164;1274;79974;-66
2022/03/23 07:46:10;;;;;;;31.90;26.60;;;;;;;29.74;22.83;102017.65;88201;1274;81746;-66
2022/03/23 07:48:20;;;;;;;26.40;23.70;;;;;;;29.74;22.78;102018.72;88182;1274;100331;-66
2022/03/23 07:50:32;;;;;;;26.80;23.90;;;;;;;29.85;22.17;102020.48;88138;1277;87881;-67
2022/03/23 07:52:44;;;;;;;28.30;25.20;;;;;;;29.82;22.79;102018.39;88172;1274;97442;-68
2022/03/23 07:54:53;;;;;;;26.50;23.30;;;;;;;30.14;20.69;102014.77;88198;1274;79583;-66
2022/03/23 07:57:06;;;;;;;26.50;23.70;;;;;;;30.18;21.28;102013.88;88218;1274;80737;-66
2022/03/23 07:59:18;;;;;;;27.80;24.00;;;;;;;30.09;21.87;102011.15;88225;1274;97860;-67
2022/03/23 08:01:27;;;;;;;26.10;23.20;;;;;;;29.67;22.28;102009.45;88172;1274;88931;-66
2022/03/23 08:03:36;;;;;;;28.30;23.50;;;;;;;29.83;21.77;102007.46;88142;1274;96350;-66
2022/03/23 08:05:46;;;;;;;26.50;23.00;;;;;;;30.25;22.04;102001.83;88192;1274;79323;-65
2022/03/23 08:07:57;;;;;;;28.60;23.20;;;;;;;30.71;21.61;102000.16;88202;1274;81306;-67
2022/03/23 08:10:08;;;;;;;25.90;23.10;;;;;;;30.56;21.51;101997.92;88120;1277;99979;-66
2022/03/23 08:12:18;;;;;;;30.50;24.20;;;;;;;30.56;21.63;101999.15;88120;1278;85812;-66
2022/03/23 08:14:29;;;;;;;26.60;23.50;;;;;;;30.93;21.11;102000.59;88194;1274;95995;-65
2022/03/23 08:16:38;;;;;;;27.20;24.10;;;;;;;31.07;20.67;101999.08;88133;1274;80400;-65
2022/03/23 08:18:47;;;;;;;27.20;24.30;;;;;;;31.11;20.86;102000.83;88179;1274;81244;-66
2022/03/23 08:20:59;;;;;;;27.90;24.30;;;;;;;31.27;20.19;102001.46;88174;1274;99772;-65
2022/03/23 08:23:15;;;;;;;32.80;25.30;;;;;;;30.84;20.66;101995.63;88130;1277;89745;-65
2022/03/23 08:25:25;;;;;;;29.60;26.30;;;;;;;30.61;20.69;101995.79;88142;1274;94952;-64
2022/03/23 08:27:33;;;;;;;29.60;26.60;;;;;;;30.88;20.08;101997.80;88187;1274;78765;-67
2022/03/23 08:29:46;;;;;;;30.70;27.50;;;;;;;30.95;20.12;101999.13;88149;1274;82962;-67
2022/03/23 08:31:55;;;;;;;29.60;26.50;;;;;;;31.14;19.64;101993.52;88173;1274;98898;-67
2022/03/23 08:34:04;;;;;;;29.50;26.50;;;;;;;30.59;19.97;101993.45;88144;1274;89061;-67
2022/03/23 08:36:14;;;;;;;30.00;26.30;;;;;;;30.68;19.79;101990.91;88185;1274;94174;-68
2022/03/23 08:38:23;;;;;;;28.90;25.90;;;;;;;30.63;19.44;101989.70;88172;1274;79688;-66
2022/03/23 08:40:32;;;;;;;29.40;25.90;;;;;;;30.67;18.67;101990.77;88185;1274;81527;-66
2022/03/23 08:42:44;;;;;;;28.00;25.00;;;;;;;30.21;19.80;101983.42;88215;1274;99903;-66
2022/03/23 08:44:56;;;;;;;35.10;25.90;;;;;;;30.55;20.20;101983.80;88209;1274;88107;-66
2022/03/23 08:47:10;;;;;;;29.50;26.60;;;;;;;30.77;20.12;101981.50;88137;1277;95628;-67
2022/03/23 08:49:20;;;;;;;28.80;25.50;;;;;;;30.84;20.03;101983.92;88190;1274;78060;-65
2022/03/23 08:51:29;;;;;;;28.30;25.30;;;;;;;30.77;19.73;101981.04;88162;1277;81100;-66
2022/03/23 08:53:42;;;;;;;29.80;26.90;;;;;;;30.50;19.44;101979.64;88156;1277;99623;-68
2022/03/23 08:55:52;;;;;;;30.60;27.40;;;;;;;30.50;19.31;101977.58;88212;1274;88050;-67
2022/03/23 08:58:01;;;;;;;29.50;26.50;;;;;;;30.71;19.57;101982.79;88182;1274;94069;-67
2022/03/23 09:00:13;;;;;;;29.00;26.00;;;;;;;30.71;19.71;101980.67;88214;1274;77724;-66
2022/03/23 09:02:25;;;;;;;29.90;26.80;;;;;;;30.87;19.23;101979.94;88244;1274;81518;-64
2022/03/23 09:04:34;;;;;;;27.70;24.80;;;;;;;30.91;19.15;101977.98;88202;1274;100324;-66
2022/03/23 09:06:43;;;;;;;28.40;25.30;;;;;;;30.40;19.53;101972.46;88198;1274;87330;-67
2022/03/23 09:08:55;;;;;;;31.20;27.80;;;;;;;30.52;19.09;101972.10;88202;1274;95518;-67
2022/03/23 09:11:04;;;;;;;29.60;26.80;;;;;;;30.26;19.13;101971.33;88174;1274;80163;-67
2022/03/23 09:13:17;;;;;;;28.50;25.50;;;;;;;30.41;19.29;101967.33;88241;1274;83663;-66
2022/03/23 09:15:27;;;;;;;;;;;;;;;30.69;19.14;101967.85;88277;1274;99741;-68
2022/03/23 09:17:37;;;;;;;29.90;25.80;;;;;;;30.79;19.10;101964.67;88231;1274;88892;-66
2022/03/23 09:19:46;;;;;;;28.80;25.90;;;;;;;30.98;18.82;101963.15;88181;1274;94456;-68
2022/03/23 09:21:55;;;;;;;30.00;27.00;;;;;;;30.83;18.92;101962.88;88204;1274;77482;-64
2022/03/23 09:24:05;;;;;;;29.40;26.50;;;;;;;30.92;18.99;101961.52;88247;1274;80969;-65
2022/03/23 09:26:16;;;;;;;31.80;26.50;;;;;;;30.75;19.02;101962.30;88197;1274;98543;-67
2022/03/23 09:28:26;;;;;;;29.10;26.20;;;;;;;30.73;18.84;101961.68;88146;1276;89747;-67
2022/03/23 09:30:35;;;;;;;28.80;25.80;;;;;;;30.78;18.76;101953.73;88144;1276;95636;-66
2022/03/23 09:32:46;;;;;;;28.60;25.80;;;;;;;30.86;18.58;101950.58;88212;1274;78377;-67
2022/03/23 09:34:54;;;;;;;29.80;26.60;;;;;;;30.91;18.47;101951.28;88210;1274;82581;-65
2022/03/23 09:39:38;;;;;;;30.30;26.40;;;;;;;30.36;18.00;101943.58;88200;1274;88721;-64
2022/03/23 09:41:49;;;;;;;29.90;26.70;;;;;;;30.10;18.66;101939.55;88206;1274;96185;-64
2022/03/23 09:44:06;;;;;;;28.80;25.80;;;;;;;30.18;18.83;101938.32;88187;1274;77662;-65
2022/03/23 09:46:18;;;;;;;30.10;27.00;;;;;;;30.03;19.11;101934.16;88241;1272;82357;-66
2022/03/23 09:48:32;;;;;;;30.40;27.20;;;;;;;29.70;18.26;101931.40;88206;1274;99103;-66
2022/03/23 09:50:45;;;;;;;32.60;27.10;;;;;;;28.93;18.78;101928.17;88174;1276;88097;-68
2022/03/23 09:52:55;;;;;;;28.30;25.20;;;;;;;28.23;19.49;101920.85;88199;1274;94115;-68
2022/03/23 09:55:05;;;;;;;29.50;26.50;;;;;;;27.73;19.47;101919.59;88229;1274;78019;-66
2022/03/23 09:57:14;;;;;;;31.10;25.40;;;;;;;27.31;19.53;101922.50;88228;1274;82895;-67
2022/03/23 09:59:26;;;;;;;26.70;23.50;;;;;;;26.58;19.75;101921.27;88179;1274;99813;-69
2022/03/23 10:02:33;;;;;;;23.00;20.60;;;;;;;26.20;20.14;101917.34;88199;1274;86779;-66
2022/03/23 10:05:58;;;;;;;23.80;21.30;;;;;;;25.47;20.00;101909.29;88089;1274;94496;-68
2022/03/23 10:09:04;;;;;;;23.60;21.00;;;;;;;24.92;20.52;101906.24;88200;1274;79316;-67
2022/03/23 10:15:20;;;;;;;;;;;;;;;24.41;20.93;101899.77;85301;1313;601311;-68
2022/03/23 10:18:27;;;;;;;21.70;19.30;;;;;;;24.27;20.64;101899.80;87617;1284;80393;-68
2022/03/23 10:20:39;;;;;;;23.20;20.70;;;;;;;24.02;20.96;101898.89;87403;1287;81925;-68